createdAt,value
2022-10-13T00:00:09.713Z,71.28
2022-10-13T00:02:36.328Z,71.13
2022-10-13T00:05:02.904Z,69.87
2022-10-13T00:07:29.494Z,69.52
2022-10-13T00:09:56.078Z,69.28
2022-10-13T00:12:22.777Z,68.94
2022-10-13T00:14:49.438Z,69.28
2022-10-13T00:17:16.077Z,69.18
2022-10-13T00:19:42.664Z,68.94
2022-10-13T00:22:09.252Z,69.56
2022-10-13T00:24:35.904Z,69.23
2022-10-13T00:27:02.488Z,68.69
2022-10-13T00:29:29.106Z,68.84
2022-10-13T00:31:55.700Z,69.08
2022-10-13T00:34:22.291Z,68.88
2022-10-13T00:36:48.878Z,68.86
2022-10-13T00:39:15.487Z,68.67
2022-10-13T00:41:42.074Z,68.93
2022-10-13T00:44:46.064Z,68.53
2022-10-13T00:47:12.598Z,67.85
2022-10-13T00:49:39.232Z,68.02
2022-10-13T00:52:05.954Z,68.33
2022-10-13T00:54:33.767Z,68.42
2022-10-13T00:57:00.462Z,68.13
2022-10-13T00:59:29.324Z,69.40
2022-10-13T01:01:59.341Z,69.30
2022-10-13T01:04:30.742Z,69.22
2022-10-13T01:06:58.215Z,70.83
2022-10-13T01:09:24.916Z,69.70
2022-10-13T01:11:57.735Z,69.94
2022-10-13T01:14:44.799Z,70.54
2022-10-13T01:17:25.587Z,69.45
2022-10-13T01:20:23.198Z,68.83
2022-10-13T01:22:55.576Z,68.80
2022-10-13T01:26:03.529Z,68.55
2022-10-13T01:28:41.876Z,68.51
2022-10-13T01:31:21.102Z,68.61
2022-10-13T01:33:55.510Z,68.51
2022-10-13T01:36:22.016Z,68.35
2022-10-13T01:39:07.640Z,68.39
2022-10-13T01:41:44.250Z,68.23
2022-10-13T01:44:25.293Z,68.26
2022-10-13T01:46:53.402Z,68.45
2022-10-13T01:49:26.763Z,68.23
2022-10-13T01:51:55.152Z,68.22
2022-10-13T01:54:22.207Z,68.88
2022-10-13T01:56:56.805Z,68.80
2022-10-13T01:59:25.839Z,68.38
2022-10-13T02:02:02.104Z,68.46
2022-10-13T02:04:54.321Z,68.93
2022-10-13T02:07:28.172Z,68.80
2022-10-13T02:10:00.704Z,68.99
2022-10-13T02:12:48.827Z,68.46
2022-10-13T02:15:21.359Z,68.23
2022-10-13T02:17:48.105Z,68.50
2022-10-13T02:20:16.851Z,68.32
2022-10-13T02:22:46.921Z,68.58
2022-10-13T02:25:13.719Z,68.47
2022-10-13T02:27:40.956Z,68.30
2022-10-13T02:30:08.152Z,68.28
2022-10-13T02:32:34.802Z,68.64
2022-10-13T02:35:01.430Z,68.62
2022-10-13T02:37:28.030Z,68.49
2022-10-13T02:39:54.709Z,68.58
2022-10-13T02:42:21.579Z,68.43
2022-10-13T02:44:48.379Z,68.55
2022-10-13T02:47:15.015Z,68.59
2022-10-13T02:49:41.651Z,69.73
2022-10-13T02:52:08.330Z,68.85
2022-10-13T02:54:34.901Z,69.45
2022-10-13T02:57:01.488Z,68.88
2022-10-13T02:59:28.199Z,69.40
2022-10-13T03:01:54.771Z,68.95
2022-10-13T03:04:21.359Z,68.81
2022-10-13T03:06:48.054Z,69.40
2022-10-13T03:09:14.646Z,69.26
2022-10-13T03:11:41.275Z,69.38
2022-10-13T03:14:07.861Z,68.99
2022-10-13T03:16:34.472Z,69.04
2022-10-13T03:19:01.059Z,68.86
2022-10-13T03:21:27.671Z,68.64
2022-10-13T03:23:54.290Z,68.65
2022-10-13T03:26:20.977Z,68.77
2022-10-13T03:28:51.797Z,69.51
2022-10-13T03:31:18.979Z,69.44
2022-10-13T03:33:45.968Z,69.27
2022-10-13T03:36:13.474Z,69.34
2022-10-13T03:38:40.154Z,69.25
2022-10-13T03:41:08.618Z,69.54
2022-10-13T03:43:35.639Z,69.20
2022-10-13T03:46:04.608Z,69.98
2022-10-13T03:48:31.902Z,70.07
2022-10-13T03:50:58.642Z,69.38
2022-10-13T03:53:26.073Z,69.34
2022-10-13T03:55:55.305Z,68.77
2022-10-13T03:58:23.982Z,68.80
2022-10-13T04:00:51.998Z,68.69
2022-10-13T04:03:18.627Z,68.72
2022-10-13T04:05:45.331Z,68.60
2022-10-13T04:08:12.501Z,68.64
2022-10-13T04:10:39.637Z,68.44
2022-10-13T04:13:06.394Z,68.40
2022-10-13T04:15:37.627Z,68.49
2022-10-13T04:18:05.379Z,68.58
2022-10-13T04:20:31.964Z,68.89
2022-10-13T04:22:58.578Z,69.11
2022-10-13T04:25:25.143Z,68.92
2022-10-13T04:27:51.844Z,68.71
2022-10-13T04:30:18.403Z,68.30
2022-10-13T04:32:45.003Z,68.50
2022-10-13T04:35:11.589Z,68.35
2022-10-13T04:37:42.782Z,68.24
2022-10-13T04:40:11.694Z,68.23
2022-10-13T04:42:38.344Z,68.31
2022-10-13T04:45:05.461Z,68.22
2022-10-13T04:47:36.815Z,67.94
2022-10-13T04:50:04.126Z,68.04
2022-10-13T04:52:30.696Z,67.99
2022-10-13T04:54:57.290Z,67.90
2022-10-13T04:57:23.868Z,68.18
2022-10-13T04:59:50.467Z,68.19
2022-10-13T05:02:17.293Z,67.95
2022-10-13T05:04:44.167Z,68.10
2022-10-13T05:07:18.119Z,68.84
2022-10-13T05:09:45.089Z,69.05
2022-10-13T05:12:11.714Z,68.64
2022-10-13T05:14:38.351Z,68.40
2022-10-13T05:17:04.985Z,68.43
2022-10-13T05:19:31.744Z,68.34
2022-10-13T05:21:58.317Z,68.43
2022-10-13T05:24:36.345Z,68.44
2022-10-13T05:27:08.708Z,68.57
2022-10-13T05:29:35.902Z,68.20
2022-10-13T05:32:02.710Z,68.44
2022-10-13T05:34:29.310Z,68.49
2022-10-13T05:36:56.037Z,68.69
2022-10-13T05:39:22.640Z,68.96
2022-10-13T05:41:49.249Z,68.99
2022-10-13T05:44:17.462Z,69.18
2022-10-13T05:46:44.564Z,68.59
2022-10-13T05:49:11.271Z,68.50
2022-10-13T05:51:44.606Z,68.60
2022-10-13T05:54:30.145Z,68.55
2022-10-13T05:57:03.500Z,68.72
2022-10-13T05:59:35.420Z,68.71
2022-10-13T06:02:03.233Z,68.55
2022-10-13T06:04:41.050Z,68.54
2022-10-13T06:07:09.942Z,68.71
2022-10-13T06:09:38.498Z,68.67
2022-10-13T06:12:06.496Z,68.58
2022-10-13T06:14:33.486Z,69.04
2022-10-13T06:17:00.015Z,69.19
2022-10-13T06:19:26.776Z,69.06
2022-10-13T06:21:53.353Z,69.05
2022-10-13T06:24:20.098Z,69.28
2022-10-13T06:26:46.747Z,69.60
2022-10-13T06:29:13.389Z,69.24
2022-10-13T06:31:39.990Z,69.53
2022-10-13T06:34:06.607Z,70.12
2022-10-13T06:36:33.179Z,69.41
2022-10-13T06:38:59.770Z,70.05
2022-10-13T06:41:26.470Z,69.99
2022-10-13T06:43:53.145Z,70.05
2022-10-13T06:46:20.624Z,70.08
2022-10-13T06:48:50.344Z,70.29
2022-10-13T06:51:17.339Z,69.45
2022-10-13T06:53:44.111Z,69.33
2022-10-13T06:56:10.747Z,69.34
2022-10-13T06:58:38.086Z,69.48
2022-10-13T07:01:06.207Z,69.80
2022-10-13T07:03:33.502Z,69.44
2022-10-13T07:06:01.732Z,71.34
2022-10-13T07:08:28.302Z,71.62
2022-10-13T07:10:55.012Z,70.95
2022-10-13T07:15:53.238Z,71.62
2022-10-13T07:18:19.854Z,72.67
2022-10-13T07:20:46.434Z,71.82
2022-10-13T07:23:13.041Z,71.49
2022-10-13T07:25:39.983Z,71.97
2022-10-13T07:28:06.622Z,70.91
2022-10-13T07:30:33.219Z,69.86
2022-10-13T07:33:00.284Z,69.53
2022-10-13T07:35:30.525Z,69.32
2022-10-13T07:37:57.611Z,68.87
2022-10-13T07:40:24.883Z,69.15
2022-10-13T07:42:51.487Z,70.22
2022-10-13T07:45:18.130Z,70.53
2022-10-13T07:47:44.821Z,70.68
2022-10-13T07:50:11.920Z,70.50
2022-10-13T07:52:38.664Z,70.04
2022-10-13T07:55:06.337Z,68.82
2022-10-13T07:57:33.188Z,69.04
2022-10-13T07:59:59.773Z,68.93
2022-10-13T08:02:26.475Z,68.82
2022-10-13T08:04:53.281Z,68.89
2022-10-13T08:07:20.432Z,68.28
2022-10-13T08:09:47.326Z,68.16
2022-10-13T08:12:13.952Z,67.88
2022-10-13T08:14:40.714Z,67.81
2022-10-13T08:17:07.557Z,67.26
2022-10-13T08:19:34.340Z,67.44
2022-10-13T08:22:00.907Z,67.89
2022-10-13T08:24:28.065Z,68.60
2022-10-13T08:26:55.162Z,68.01
2022-10-13T08:29:23.505Z,67.45
2022-10-13T08:31:54.455Z,67.27
2022-10-13T08:34:24.572Z,66.80
2022-10-13T08:36:54.473Z,66.58
2022-10-13T08:39:22.426Z,66.26
2022-10-13T08:41:49.462Z,66.50
2022-10-13T08:47:47.667Z,66.16
2022-10-13T08:50:19.154Z,66.17
2022-10-13T08:52:54.933Z,66.23
2022-10-13T08:55:32.043Z,66.25
2022-10-13T08:58:00.662Z,65.76
2022-10-13T09:00:31.378Z,65.39
2022-10-13T09:03:19.515Z,65.53
2022-10-13T09:06:13.968Z,65.89
2022-10-13T09:08:56.741Z,65.85
2022-10-13T09:11:25.408Z,65.45
2022-10-13T09:13:55.898Z,65.68
2022-10-13T09:16:40.103Z,64.75
2022-10-13T09:19:30.221Z,65.00
2022-10-13T09:22:13.463Z,65.36
2022-10-13T09:24:40.103Z,65.55
2022-10-13T09:27:15.867Z,64.76
2022-10-13T09:29:44.611Z,64.92
2022-10-13T09:32:19.664Z,64.97
2022-10-13T09:34:47.487Z,64.75
2022-10-13T09:37:21.047Z,65.20
2022-10-13T09:40:01.813Z,65.05
2022-10-13T09:42:31.937Z,65.14
2022-10-13T09:45:12.207Z,64.74
2022-10-13T09:47:39.584Z,64.36
2022-10-13T09:50:23.062Z,65.03
2022-10-13T09:52:49.644Z,63.49
2022-10-13T09:55:32.581Z,64.40
2022-10-13T09:58:10.664Z,63.97
2022-10-13T10:00:38.019Z,64.20
2022-10-13T10:03:17.731Z,63.80
2022-10-13T10:05:56.753Z,64.03
2022-10-13T10:09:02.308Z,63.82
2022-10-13T10:11:50.243Z,64.00
2022-10-13T10:14:28.853Z,63.34
2022-10-13T10:17:12.869Z,63.26
2022-10-13T10:20:13.285Z,63.55
2022-10-13T10:22:53.066Z,62.94
2022-10-13T10:25:33.601Z,62.67
2022-10-13T10:28:16.796Z,62.93
2022-10-13T10:30:56.811Z,62.58
2022-10-13T10:33:43.238Z,60.16
2022-10-13T10:36:21.926Z,61.50
2022-10-13T10:38:56.216Z,61.25
2022-10-13T10:41:45.182Z,59.78
2022-10-13T10:44:16.224Z,60.50
2022-10-13T10:46:48.818Z,60.37
2022-10-13T10:49:24.375Z,59.70
2022-10-13T10:51:51.451Z,59.77
2022-10-13T10:54:49.201Z,58.75
2022-10-13T10:57:28.206Z,58.16
2022-10-13T11:00:18.494Z,58.11
2022-10-13T11:03:15.646Z,58.20
2022-10-13T11:05:57.514Z,58.39
2022-10-13T11:08:37.752Z,56.52
2022-10-13T11:11:33.384Z,56.02
2022-10-13T11:14:38.543Z,55.89
2022-10-13T11:17:05.062Z,56.94
2022-10-13T11:19:41.024Z,57.13
2022-10-13T11:22:07.533Z,57.69
2022-10-13T11:24:34.091Z,58.04
2022-10-13T11:27:10.676Z,57.78
2022-10-13T11:29:46.071Z,56.88
2022-10-13T11:32:27.680Z,55.44
2022-10-13T11:35:06.421Z,55.87
2022-10-13T11:38:06.058Z,56.69
2022-10-13T11:40:56.318Z,55.38
2022-10-13T11:43:25.885Z,55.03
2022-10-13T11:46:01.288Z,55.94
2022-10-13T11:49:00.806Z,55.35
2022-10-13T11:51:50.813Z,55.23
2022-10-13T11:54:36.033Z,54.95
2022-10-13T11:57:04.670Z,54.93
2022-10-13T11:59:34.481Z,56.26
2022-10-13T12:02:19.083Z,56.73
2022-10-13T12:05:06.706Z,56.59
2022-10-13T12:07:36.818Z,57.00
2022-10-13T12:10:07.971Z,56.24
2022-10-13T12:12:35.075Z,56.54
2022-10-13T12:15:05.941Z,56.83
2022-10-13T12:17:41.279Z,55.46
2022-10-13T12:20:23.332Z,55.22
2022-10-13T12:22:51.682Z,55.34
2022-10-13T12:25:20.644Z,54.05
2022-10-13T12:27:50.342Z,53.50
2022-10-13T12:30:26.518Z,53.59
2022-10-13T12:32:56.413Z,51.86
2022-10-13T12:35:26.510Z,50.28
2022-10-13T12:37:53.963Z,51.42
2022-10-13T12:40:21.622Z,51.70
2022-10-13T12:42:48.890Z,52.92
2022-10-13T12:45:28.196Z,50.71
2022-10-13T12:47:55.488Z,50.00
2022-10-13T12:50:24.920Z,50.55
2022-10-13T12:53:09.982Z,47.77
2022-10-13T12:55:56.359Z,47.74
2022-10-13T12:58:27.161Z,48.69
2022-10-13T13:01:30.964Z,49.01
2022-10-13T13:04:01.248Z,46.34
2022-10-13T13:06:37.707Z,47.85
2022-10-13T13:09:16.537Z,46.52
2022-10-13T13:11:43.144Z,47.53
2022-10-13T13:14:36.618Z,44.60
2022-10-13T13:17:11.344Z,44.08
2022-10-13T13:19:39.128Z,44.50
2022-10-13T13:22:06.768Z,46.58
2022-10-13T13:24:40.960Z,45.38
2022-10-13T13:27:17.300Z,44.52
2022-10-13T13:29:45.000Z,46.10
2022-10-13T13:32:19.851Z,45.27
2022-10-13T13:34:47.215Z,46.04
2022-10-13T13:37:20.005Z,46.88
2022-10-13T13:39:46.805Z,46.28
2022-10-13T13:42:15.303Z,46.39
2022-10-13T13:44:41.985Z,46.68
2022-10-13T13:47:25.824Z,46.44
2022-10-13T13:49:54.474Z,46.43
2022-10-13T13:52:22.016Z,45.54
2022-10-13T13:54:50.797Z,46.68
2022-10-13T13:57:18.690Z,45.47
2022-10-13T13:59:45.951Z,47.04
2022-10-13T14:02:18.994Z,45.73
2022-10-13T14:04:46.367Z,45.93
2022-10-13T14:07:13.629Z,46.73
2022-10-13T14:09:40.375Z,46.05
2022-10-13T14:12:07.094Z,45.30
2022-10-13T14:14:33.912Z,44.16
2022-10-13T14:17:01.850Z,45.78
2022-10-13T14:19:28.511Z,45.29
2022-10-13T14:21:55.086Z,45.39
2022-10-13T14:24:22.113Z,44.04
2022-10-13T14:26:48.841Z,45.37
2022-10-13T14:29:15.576Z,44.42
2022-10-13T14:31:42.176Z,46.08
2022-10-13T14:34:08.839Z,45.97
2022-10-13T14:36:35.535Z,44.96
2022-10-13T14:39:02.326Z,44.85
2022-10-13T14:41:28.972Z,45.14
2022-10-13T14:43:57.097Z,45.03
2022-10-13T14:46:25.551Z,44.86
2022-10-13T14:48:52.152Z,45.00
2022-10-13T14:51:18.790Z,44.04
2022-10-13T14:53:46.001Z,44.56
2022-10-13T14:56:27.610Z,43.38
2022-10-13T14:58:57.738Z,44.44
2022-10-13T15:01:24.391Z,46.92
2022-10-13T15:03:51.139Z,47.46
2022-10-13T15:06:20.976Z,46.69
2022-10-13T15:08:48.401Z,46.31
2022-10-13T15:11:16.091Z,45.93
2022-10-13T15:13:43.000Z,47.61
2022-10-13T15:16:24.203Z,47.86
2022-10-13T15:18:51.014Z,47.10
2022-10-13T15:21:18.314Z,46.76
2022-10-13T15:23:45.514Z,47.12
2022-10-13T15:26:14.290Z,47.35
2022-10-13T15:28:46.537Z,47.79
2022-10-13T15:31:14.810Z,47.66
2022-10-13T15:33:47.118Z,47.85
2022-10-13T15:36:14.332Z,47.62
2022-10-13T15:38:41.010Z,47.65
2022-10-13T15:41:09.068Z,47.64
2022-10-13T15:43:35.715Z,48.04
2022-10-13T15:46:07.992Z,48.04
2022-10-13T15:48:35.457Z,47.87
2022-10-13T15:51:05.545Z,48.32
2022-10-13T15:53:32.252Z,49.05
2022-10-13T15:56:02.248Z,49.40
2022-10-13T15:58:28.822Z,50.02
2022-10-13T16:00:55.476Z,52.07
2022-10-13T16:03:22.167Z,51.33
2022-10-13T16:05:48.761Z,50.75
2022-10-13T16:08:15.368Z,50.28
2022-10-13T16:10:43.091Z,51.09
2022-10-13T16:13:13.867Z,51.43
2022-10-13T16:15:40.740Z,52.15
2022-10-13T16:18:08.025Z,51.09
2022-10-13T16:20:37.831Z,51.97
2022-10-13T16:23:05.225Z,51.44
2022-10-13T16:25:32.167Z,51.47
2022-10-13T16:28:01.844Z,51.11
2022-10-13T16:30:30.494Z,51.78
2022-10-13T16:32:58.128Z,51.56
2022-10-13T16:35:24.872Z,51.45
2022-10-13T16:37:51.486Z,51.82
2022-10-13T16:40:18.162Z,51.75
2022-10-13T16:42:45.445Z,52.26
2022-10-13T16:45:13.197Z,52.50
2022-10-13T16:47:39.780Z,52.10
2022-10-13T16:50:09.681Z,51.87
2022-10-13T16:52:37.709Z,51.82
2022-10-13T16:55:06.149Z,52.06
2022-10-13T16:57:33.023Z,52.04
2022-10-13T16:59:59.694Z,52.40
2022-10-13T17:02:26.256Z,52.15
2022-10-13T17:04:53.074Z,52.38
2022-10-13T17:07:19.830Z,52.36
2022-10-13T17:09:47.286Z,52.38
2022-10-13T17:12:13.878Z,52.36
2022-10-13T17:14:40.499Z,52.65
2022-10-13T17:17:07.103Z,52.54
2022-10-13T17:19:33.812Z,52.47
2022-10-13T17:22:00.404Z,52.67
2022-10-13T17:24:27.031Z,52.67
2022-10-13T17:26:53.590Z,53.46
2022-10-13T17:29:20.201Z,53.68
2022-10-13T17:31:46.868Z,53.06
2022-10-13T17:34:13.571Z,52.90
2022-10-13T17:36:40.180Z,52.78
2022-10-13T17:39:09.087Z,53.83
2022-10-13T17:41:35.953Z,53.41
2022-10-13T17:44:02.832Z,53.60
2022-10-13T17:46:36.761Z,53.47
2022-10-13T17:49:04.158Z,53.35
2022-10-13T17:51:30.755Z,53.91
2022-10-13T17:53:59.331Z,53.73
2022-10-13T17:56:26.143Z,53.52
2022-10-13T17:58:52.838Z,54.05
2022-10-13T18:01:21.219Z,54.04
2022-10-13T18:03:51.077Z,54.32
2022-10-13T18:06:18.340Z,53.87
2022-10-13T18:08:44.923Z,54.17
2022-10-13T18:11:15.147Z,54.26
2022-10-13T18:13:42.658Z,54.38
2022-10-13T18:16:12.418Z,54.46
2022-10-13T18:18:39.125Z,53.98
2022-10-13T18:21:07.697Z,54.14
2022-10-13T18:23:36.940Z,54.42
2022-10-13T18:26:09.727Z,54.50
2022-10-13T18:28:40.049Z,54.90
2022-10-13T18:31:17.703Z,54.82
2022-10-13T18:33:44.843Z,54.86
2022-10-13T18:36:16.069Z,55.33
2022-10-13T18:38:43.657Z,54.95
2022-10-13T18:41:10.326Z,55.30
2022-10-13T18:43:36.921Z,55.27
2022-10-13T18:46:04.442Z,55.79
2022-10-13T18:48:32.598Z,55.76
2022-10-13T18:51:08.221Z,56.28
2022-10-13T18:53:40.312Z,56.59
2022-10-13T18:56:11.583Z,56.37
2022-10-13T18:58:38.431Z,56.31
2022-10-13T19:01:08.563Z,56.30
2022-10-13T19:03:37.192Z,56.06
2022-10-13T19:06:05.451Z,56.56
2022-10-13T19:08:32.228Z,57.05
2022-10-13T19:10:59.182Z,57.23
2022-10-13T19:13:26.675Z,56.64
2022-10-13T19:16:03.119Z,57.05
2022-10-13T19:18:30.041Z,58.02
2022-10-13T19:20:56.716Z,57.73
2022-10-13T19:23:23.416Z,58.04
2022-10-13T19:25:50.581Z,58.35
2022-10-13T19:28:17.724Z,58.17
2022-10-13T19:30:45.023Z,58.54
2022-10-13T19:33:13.171Z,58.71
2022-10-13T19:35:54.160Z,58.00
2022-10-13T19:38:21.014Z,57.80
2022-10-13T19:40:49.709Z,58.00
2022-10-13T19:43:19.835Z,57.84
2022-10-13T19:45:48.918Z,58.02
2022-10-13T19:48:16.769Z,58.38
2022-10-13T19:50:43.658Z,58.47
2022-10-13T19:53:11.935Z,58.45
2022-10-13T19:55:46.672Z,57.84
2022-10-13T19:58:16.104Z,58.30
2022-10-13T20:00:46.839Z,58.95
2022-10-13T20:03:14.561Z,58.76
2022-10-13T20:05:42.022Z,59.14
2022-10-13T20:08:10.487Z,59.85
2022-10-13T20:10:41.794Z,60.91
2022-10-13T20:13:09.831Z,61.73
2022-10-13T20:15:42.100Z,61.85
2022-10-13T20:18:10.162Z,61.67
2022-10-13T20:20:37.077Z,62.12
2022-10-13T20:23:03.734Z,61.48
2022-10-13T20:25:30.642Z,60.74
2022-10-13T20:27:57.269Z,60.50
2022-10-13T20:30:23.854Z,60.19
2022-10-13T20:32:50.441Z,59.94
2022-10-13T20:35:17.115Z,59.79
2022-10-13T20:37:43.684Z,59.90
2022-10-13T20:40:10.586Z,59.67
2022-10-13T20:42:37.163Z,59.52
2022-10-13T20:45:04.490Z,59.27
2022-10-13T20:47:31.064Z,59.67
2022-10-13T20:49:57.655Z,59.79
2022-10-13T20:52:24.303Z,59.46
2022-10-13T20:54:50.899Z,59.60
2022-10-13T20:57:17.495Z,60.15
2022-10-13T20:59:44.087Z,59.98
2022-10-13T21:02:13.992Z,59.56
2022-10-13T21:04:40.656Z,59.83
2022-10-13T21:07:07.282Z,60.65
2022-10-13T21:09:35.771Z,60.65
2022-10-13T21:12:02.354Z,60.71
2022-10-13T21:14:29.079Z,61.94
2022-10-13T21:16:55.676Z,61.97
2022-10-13T21:19:22.275Z,61.63
2022-10-13T21:21:48.876Z,61.63
2022-10-13T21:24:15.520Z,61.49
2022-10-13T21:26:42.170Z,61.52
2022-10-13T21:29:08.806Z,60.95
2022-10-13T21:31:35.404Z,60.80
2022-10-13T21:34:02.083Z,62.74
2022-10-13T21:36:31.349Z,62.14
2022-10-13T21:39:00.562Z,64.04
2022-10-13T21:41:28.265Z,63.66
2022-10-13T21:43:55.295Z,63.78
2022-10-13T21:46:25.115Z,64.20
2022-10-13T21:48:54.152Z,62.69
2022-10-13T21:51:23.569Z,63.34
2022-10-13T21:53:55.103Z,63.13
2022-10-13T21:56:22.364Z,62.48
2022-10-13T21:58:49.202Z,62.71
2022-10-13T22:01:19.864Z,62.98
2022-10-13T22:03:47.495Z,62.98
2022-10-13T22:06:19.045Z,62.59
2022-10-13T22:08:48.575Z,63.92
2022-10-13T22:11:16.683Z,64.62
2022-10-13T22:13:43.566Z,64.25
2022-10-13T22:16:13.606Z,64.58
2022-10-13T22:18:40.438Z,65.57
2022-10-13T22:21:10.514Z,65.58
2022-10-13T22:23:37.100Z,64.81
2022-10-13T22:26:04.327Z,64.31
2022-10-13T22:28:36.820Z,63.41
2022-10-13T22:31:08.964Z,63.25
2022-10-13T22:33:36.992Z,63.40
2022-10-13T22:36:08.516Z,63.02
2022-10-13T22:38:35.304Z,63.05
2022-10-13T22:41:05.977Z,63.17
2022-10-13T22:43:33.198Z,64.54
2022-10-13T22:46:01.949Z,64.06
2022-10-13T22:48:28.918Z,63.42
2022-10-13T22:50:56.599Z,63.35
2022-10-13T22:53:23.194Z,63.03
2022-10-13T22:55:49.942Z,62.77
2022-10-13T22:58:16.529Z,63.22
2022-10-13T23:00:43.119Z,62.87
2022-10-13T23:03:13.395Z,62.46
2022-10-13T23:05:46.743Z,62.62
2022-10-13T23:08:13.209Z,62.10
2022-10-13T23:10:39.801Z,62.43
2022-10-13T23:13:06.417Z,62.53
2022-10-13T23:15:33.043Z,63.38
2022-10-13T23:17:59.651Z,67.17
2022-10-13T23:20:26.228Z,66.66
2022-10-13T23:22:52.816Z,65.05
2022-10-13T23:25:19.439Z,64.67
2022-10-13T23:27:46.027Z,64.71
2022-10-13T23:30:13.070Z,64.42
2022-10-13T23:32:39.636Z,64.00
2022-10-13T23:35:06.573Z,63.71
2022-10-13T23:37:33.223Z,63.60
2022-10-13T23:39:59.827Z,63.41
2022-10-13T23:42:26.400Z,64.29
2022-10-13T23:44:52.981Z,63.80
2022-10-13T23:47:19.874Z,63.58
2022-10-13T23:49:46.756Z,63.29
2022-10-13T23:52:13.459Z,64.13
2022-10-13T23:54:40.045Z,63.34
2022-10-13T23:57:06.634Z,63.28
2022-10-13T23:59:33.557Z,63.31
